createdAt,value
2023-04-10T00:00:03.979Z,1000.81
2023-04-10T00:01:04.073Z,1000.77
2023-04-10T00:02:03.999Z,1000.79
2023-04-10T00:03:04.529Z,1000.87
2023-04-10T00:04:04.015Z,1000.83
2023-04-10T00:05:03.956Z,1000.86
2023-04-10T00:06:03.948Z,1000.83
2023-04-10T00:07:04.113Z,1000.83
2023-04-10T00:08:03.905Z,1000.87
2023-04-10T00:09:04.098Z,1000.91
2023-04-10T00:10:04.063Z,1000.89
2023-04-10T00:11:03.894Z,1000.92
2023-04-10T00:12:03.954Z,1000.90
2023-04-10T00:13:03.958Z,1000.99
2023-04-10T00:14:04.088Z,1001.02
2023-04-10T00:15:03.897Z,1001.01
2023-04-10T00:16:03.883Z,1001.01
2023-04-10T00:17:03.864Z,1000.98
2023-04-10T00:18:03.862Z,1000.96
2023-04-10T00:19:03.883Z,1000.97
2023-04-10T00:20:03.832Z,1000.95
2023-04-10T00:21:03.822Z,1001.04
2023-04-10T00:22:03.835Z,1001.02
2023-04-10T00:23:03.887Z,1001.05
2023-04-10T00:24:03.812Z,1001.00
2023-04-10T00:25:03.798Z,1001.00
2023-04-10T00:26:03.795Z,1000.98
2023-04-10T00:27:03.828Z,1001.01
2023-04-10T00:28:03.834Z,1001.08
2023-04-10T00:29:03.802Z,1001.06
2023-04-10T00:30:03.794Z,1001.06
2023-04-10T00:31:03.821Z,1001.03
2023-04-10T00:32:03.834Z,1001.03
2023-04-10T00:33:03.845Z,1001.03
2023-04-10T00:34:03.734Z,1000.98
2023-04-10T00:35:03.794Z,1000.95
2023-04-10T00:36:03.740Z,1000.95
2023-04-10T00:37:03.772Z,1000.93
2023-04-10T00:38:03.753Z,1000.88
2023-04-10T00:39:03.706Z,1000.90
2023-04-10T00:40:03.721Z,1000.87
2023-04-10T00:41:03.815Z,1000.93
2023-04-10T00:42:03.714Z,1000.92
2023-04-10T00:43:03.671Z,1000.91
2023-04-10T00:44:03.772Z,1000.94
2023-04-10T00:45:03.650Z,1000.93
2023-04-10T00:46:03.742Z,1000.92
2023-04-10T00:47:03.657Z,1000.96
2023-04-10T00:48:03.714Z,1001.00
2023-04-10T00:49:03.640Z,1001.01
2023-04-10T00:50:03.661Z,1001.01
2023-04-10T00:51:03.677Z,1000.97
2023-04-10T00:52:03.654Z,1001.02
2023-04-10T00:53:03.628Z,1000.98
2023-04-10T00:54:03.602Z,1000.99
2023-04-10T00:55:03.600Z,1000.94
2023-04-10T00:56:03.637Z,1000.97
2023-04-10T00:57:03.635Z,1000.98
2023-04-10T00:58:03.592Z,1000.91
2023-04-10T00:59:05.729Z,1000.90
2023-04-10T01:00:03.666Z,1000.91
2023-04-10T01:01:03.631Z,1000.93
2023-04-10T01:02:03.794Z,1000.90
2023-04-10T01:03:03.679Z,1000.94
2023-04-10T01:04:03.743Z,1000.90
2023-04-10T01:05:03.524Z,1000.87
2023-04-10T01:06:03.552Z,1000.85
2023-04-10T01:07:03.533Z,1000.85
2023-04-10T01:08:03.565Z,1000.84
2023-04-10T01:09:03.513Z,1000.85
2023-04-10T01:10:03.490Z,1000.90
2023-04-10T01:11:03.500Z,1000.88
2023-04-10T01:12:03.518Z,1000.91
2023-04-10T01:13:03.519Z,1000.88
2023-04-10T01:14:03.521Z,1000.88
2023-04-10T01:15:03.488Z,1000.83
2023-04-10T01:16:03.469Z,1000.88
2023-04-10T01:17:03.641Z,1000.86
2023-04-10T01:18:03.505Z,1000.91
2023-04-10T01:19:03.459Z,1000.88
2023-04-10T01:20:03.463Z,1000.87
2023-04-10T01:21:03.456Z,1000.86
2023-04-10T01:22:03.428Z,1000.95
2023-04-10T01:23:03.463Z,1000.95
2023-04-10T01:24:03.415Z,1000.86
2023-04-10T01:25:03.402Z,1000.83
2023-04-10T01:26:03.417Z,1000.86
2023-04-10T01:27:03.417Z,1000.89
2023-04-10T01:28:03.373Z,1000.86
2023-04-10T01:29:04.580Z,1000.82
2023-04-10T01:30:03.416Z,1000.93
2023-04-10T01:31:03.408Z,1000.85
2023-04-10T01:32:03.385Z,1000.84
2023-04-10T01:33:03.381Z,1000.88
2023-04-10T01:34:03.342Z,1000.84
2023-04-10T01:35:03.387Z,1000.88
2023-04-10T01:36:03.451Z,1000.82
2023-04-10T01:37:03.317Z,1000.79
2023-04-10T01:38:03.325Z,1000.84
2023-04-10T01:39:03.319Z,1000.80
2023-04-10T01:40:03.376Z,1000.85
2023-04-10T01:41:03.282Z,1000.78
2023-04-10T01:42:03.318Z,1000.79
2023-04-10T01:43:03.292Z,1000.76
2023-04-10T01:44:03.258Z,1000.74
2023-04-10T01:45:03.394Z,1000.72
2023-04-10T01:46:03.289Z,1000.72
2023-04-10T01:47:03.293Z,1000.71
2023-04-10T01:48:03.306Z,1000.73
2023-04-10T01:49:03.230Z,1000.73
2023-04-10T01:50:03.239Z,1000.72
2023-04-10T01:51:03.244Z,1000.76
2023-04-10T01:52:03.254Z,1000.78
2023-04-10T01:53:03.291Z,1000.72
2023-04-10T01:54:04.549Z,1000.71
2023-04-10T01:55:03.193Z,1000.75
2023-04-10T01:56:03.248Z,1000.65
2023-04-10T01:57:03.186Z,1000.69
2023-04-10T01:58:03.197Z,1000.71
2023-04-10T01:59:03.238Z,1000.64
2023-04-10T02:00:03.301Z,1000.61
2023-04-10T02:01:03.189Z,1000.62
2023-04-10T02:02:03.302Z,1000.65
2023-04-10T02:03:03.284Z,1000.65
2023-04-10T02:04:03.239Z,1000.65
2023-04-10T02:05:03.287Z,1000.69
2023-04-10T02:06:03.135Z,1000.67
2023-04-10T02:07:03.163Z,1000.67
2023-04-10T02:08:03.178Z,1000.63
2023-04-10T02:09:03.117Z,1000.66
2023-04-10T02:10:03.099Z,1000.66
2023-04-10T02:11:03.096Z,1000.73
2023-04-10T02:12:03.095Z,1000.71
2023-04-10T02:13:03.149Z,1000.72
2023-04-10T02:14:03.142Z,1000.64
2023-04-10T02:15:03.080Z,1000.65
2023-04-10T02:16:04.333Z,1000.66
2023-04-10T02:17:04.056Z,1000.71
2023-04-10T02:18:03.082Z,1000.71
2023-04-10T02:19:03.102Z,1000.72
2023-04-10T02:20:03.024Z,1000.67
2023-04-10T02:21:03.015Z,1000.69
2023-04-10T02:22:04.013Z,1000.61
2023-04-10T02:23:03.010Z,1000.63
2023-04-10T02:24:03.055Z,1000.60
2023-04-10T02:25:02.991Z,1000.65
2023-04-10T02:26:02.989Z,1000.68
2023-04-10T02:27:03.029Z,1000.65
2023-04-10T02:28:02.983Z,1000.65
2023-04-10T02:29:03.015Z,1000.63
2023-04-10T02:30:02.979Z,1000.65
2023-04-10T02:31:02.997Z,1000.67
2023-04-10T02:32:02.959Z,1000.65
2023-04-10T02:33:03.019Z,1000.68
2023-04-10T02:34:02.975Z,1000.67
2023-04-10T02:35:02.937Z,1000.69
2023-04-10T02:36:02.994Z,1000.73
2023-04-10T02:37:02.940Z,1000.67
2023-04-10T02:38:02.912Z,1000.65
2023-04-10T02:39:02.957Z,1000.65
2023-04-10T02:40:02.945Z,1000.61
2023-04-10T02:41:02.944Z,1000.65
2023-04-10T02:42:02.881Z,1000.65
2023-04-10T02:43:02.935Z,1000.62
2023-04-10T02:44:02.892Z,1000.62
2023-04-10T02:45:02.867Z,1000.58
2023-04-10T02:46:02.889Z,1000.60
2023-04-10T02:47:02.920Z,1000.54
2023-04-10T02:48:03.022Z,1000.53
2023-04-10T02:49:02.841Z,1000.59
2023-04-10T02:50:02.884Z,1000.57
2023-04-10T02:51:02.871Z,1000.57
2023-04-10T02:52:02.864Z,1000.55
2023-04-10T02:53:02.816Z,1000.46
2023-04-10T02:54:02.837Z,1000.53
2023-04-10T02:55:02.810Z,1000.52
2023-04-10T02:56:02.889Z,1000.55
2023-04-10T02:57:02.891Z,1000.53
2023-04-10T02:58:02.802Z,1000.52
2023-04-10T02:59:02.783Z,1000.48
2023-04-10T03:00:02.806Z,1000.59
2023-04-10T03:01:02.789Z,1000.53
2023-04-10T03:02:03.206Z,1000.53
2023-04-10T03:03:02.909Z,1000.51
2023-04-10T03:04:02.822Z,1000.54
2023-04-10T03:05:02.759Z,1000.53
2023-04-10T03:06:02.774Z,1000.52
2023-04-10T03:07:02.790Z,1000.53
2023-04-10T03:08:02.724Z,1000.54
2023-04-10T03:09:02.737Z,1000.57
2023-04-10T03:10:02.711Z,1000.54
2023-04-10T03:11:02.710Z,1000.51
2023-04-10T03:12:02.738Z,1000.51
2023-04-10T03:13:02.756Z,1000.49
2023-04-10T03:14:02.694Z,1000.49
2023-04-10T03:15:02.706Z,1000.42
2023-04-10T03:16:02.742Z,1000.47
2023-04-10T03:17:02.652Z,1000.45
2023-04-10T03:18:02.733Z,1000.47
2023-04-10T03:19:02.649Z,1000.46
2023-04-10T03:20:02.632Z,1000.45
2023-04-10T03:21:02.622Z,1000.43
2023-04-10T03:22:02.645Z,1000.46
2023-04-10T03:23:02.627Z,1000.38
2023-04-10T03:24:02.683Z,1000.41
2023-04-10T03:25:02.630Z,1000.41
2023-04-10T03:26:02.647Z,1000.43
2023-04-10T03:27:02.609Z,1000.39
2023-04-10T03:28:02.626Z,1000.37
2023-04-10T03:29:02.622Z,1000.39
2023-04-10T03:30:02.614Z,1000.39
2023-04-10T03:31:02.584Z,1000.40
2023-04-10T03:32:13.307Z,1000.37
2023-04-10T03:33:03.614Z,1000.42
2023-04-10T03:34:02.599Z,1000.41
2023-04-10T03:35:02.641Z,1000.35
2023-04-10T03:36:02.610Z,1000.42
2023-04-10T03:37:02.565Z,1000.37
2023-04-10T03:38:02.545Z,1000.42
2023-04-10T03:39:02.517Z,1000.46
2023-04-10T03:40:02.566Z,1000.36
2023-04-10T03:41:02.549Z,1000.39
2023-04-10T03:42:02.618Z,1000.34
2023-04-10T03:43:02.539Z,1000.36
2023-04-10T03:44:02.480Z,1000.31
2023-04-10T03:45:02.499Z,1000.32
2023-04-10T03:46:03.557Z,1000.31
2023-04-10T03:47:02.492Z,1000.26
2023-04-10T03:48:02.515Z,1000.31
2023-04-10T03:49:02.446Z,1000.27
2023-04-10T03:50:02.488Z,1000.29
2023-04-10T03:51:02.437Z,1000.24
2023-04-10T03:52:02.416Z,1000.23
2023-04-10T03:53:02.418Z,1000.27
2023-04-10T03:54:02.443Z,1000.26
2023-04-10T03:55:02.466Z,1000.23
2023-04-10T03:56:02.457Z,1000.26
2023-04-10T03:57:02.472Z,1000.26
2023-04-10T03:58:02.404Z,1000.28
2023-04-10T03:59:02.381Z,1000.28
2023-04-10T04:00:02.415Z,1000.23
2023-04-10T04:01:02.403Z,1000.24
2023-04-10T04:02:02.429Z,1000.24
2023-04-10T04:03:02.576Z,1000.19
2023-04-10T04:04:02.519Z,1000.23
2023-04-10T04:05:02.442Z,1000.20
2023-04-10T04:06:02.380Z,1000.16
2023-04-10T04:07:02.401Z,1000.16
2023-04-10T04:08:02.350Z,1000.21
2023-04-10T04:09:02.316Z,1000.26
2023-04-10T04:10:02.337Z,1000.17
2023-04-10T04:11:02.291Z,1000.15
2023-04-10T04:12:02.348Z,1000.23
2023-04-10T04:13:02.299Z,1000.21
2023-04-10T04:14:02.398Z,1000.18
2023-04-10T04:15:02.280Z,1000.17
2023-04-10T04:16:02.269Z,1000.20
2023-04-10T04:17:02.338Z,1000.19
2023-04-10T04:18:02.314Z,1000.24
2023-04-10T04:19:02.303Z,1000.23
2023-04-10T04:20:02.314Z,1000.21
2023-04-10T04:21:02.239Z,1000.20
2023-04-10T04:22:02.256Z,1000.21
2023-04-10T04:23:02.216Z,1000.19
2023-04-10T04:24:02.238Z,1000.17
2023-04-10T04:25:02.246Z,1000.20
2023-04-10T04:26:02.197Z,1000.13
2023-04-10T04:27:02.213Z,1000.27
2023-04-10T04:28:02.213Z,1000.19
2023-04-10T04:29:02.249Z,1000.20
2023-04-10T04:30:02.180Z,1000.29
2023-04-10T04:31:02.180Z,1000.24
2023-04-10T04:32:02.191Z,1000.31
2023-04-10T04:33:02.184Z,1000.28
2023-04-10T04:34:02.252Z,1000.36
2023-04-10T04:35:02.153Z,1000.25
2023-04-10T04:36:02.283Z,1000.27
2023-04-10T04:37:02.160Z,1000.35
2023-04-10T04:38:02.129Z,1000.26
2023-04-10T04:39:02.154Z,1000.28
2023-04-10T04:40:02.204Z,1000.31
2023-04-10T04:41:02.097Z,1000.29
2023-04-10T04:42:02.090Z,1000.33
2023-04-10T04:43:02.114Z,1000.34
2023-04-10T04:44:02.110Z,1000.39
2023-04-10T04:45:02.109Z,1000.32
2023-04-10T04:46:02.126Z,1000.33
2023-04-10T04:47:02.077Z,1000.37
2023-04-10T04:48:02.117Z,1000.25
2023-04-10T04:49:02.149Z,1000.26
2023-04-10T04:50:02.098Z,1000.27
2023-04-10T04:51:02.041Z,1000.28
2023-04-10T04:52:02.088Z,1000.30
2023-04-10T04:53:02.033Z,1000.29
2023-04-10T04:54:02.026Z,1000.29
2023-04-10T04:55:02.071Z,1000.31
2023-04-10T04:56:02.078Z,1000.27
2023-04-10T04:57:02.006Z,1000.27
2023-04-10T04:58:02.011Z,1000.21
2023-04-10T04:59:01.990Z,1000.26
2023-04-10T05:00:02.074Z,1000.28
2023-04-10T05:01:02.054Z,1000.30
2023-04-10T05:02:02.200Z,1000.27
2023-04-10T05:03:02.108Z,1000.29
2023-04-10T05:04:02.129Z,1000.33
2023-04-10T05:05:02.007Z,1000.29
2023-04-10T05:06:01.976Z,1000.31
2023-04-10T05:07:01.996Z,1000.30
2023-04-10T05:08:01.955Z,1000.32
2023-04-10T05:09:01.959Z,1000.34
2023-04-10T05:10:01.963Z,1000.35
2023-04-10T05:11:01.926Z,1000.35
2023-04-10T05:12:01.946Z,1000.35
2023-04-10T05:13:01.922Z,1000.35
2023-04-10T05:14:01.944Z,1000.35
2023-04-10T05:15:01.885Z,1000.37
2023-04-10T05:16:01.896Z,1000.39
2023-04-10T05:17:03.637Z,1000.40
2023-04-10T05:18:02.978Z,1000.35
2023-04-10T05:19:01.915Z,1000.38
2023-04-10T05:20:01.859Z,1000.37
2023-04-10T05:21:01.833Z,1000.38
2023-04-10T05:22:01.883Z,1000.41
2023-04-10T05:23:01.827Z,1000.38
2023-04-10T05:24:01.837Z,1000.38
2023-04-10T05:25:01.843Z,1000.42
2023-04-10T05:26:01.804Z,1000.40
2023-04-10T05:27:01.893Z,1000.33
2023-04-10T05:28:01.798Z,1000.40
2023-04-10T05:29:01.823Z,1000.35
2023-04-10T05:30:01.801Z,1000.31
2023-04-10T05:31:01.780Z,1000.34
2023-04-10T05:32:01.846Z,1000.37
2023-04-10T05:33:01.891Z,1000.39
2023-04-10T05:34:01.856Z,1000.44
2023-04-10T05:35:01.757Z,1000.44
2023-04-10T05:36:01.907Z,1000.46
2023-04-10T05:37:01.743Z,1000.46
2023-04-10T05:38:01.803Z,1000.50
2023-04-10T05:39:01.745Z,1000.49
2023-04-10T05:40:01.732Z,1000.48
2023-04-10T05:41:01.731Z,1000.50
2023-04-10T05:42:01.705Z,1000.47
2023-04-10T05:43:01.739Z,1000.46
2023-04-10T05:44:01.713Z,1000.53
2023-04-10T05:45:01.688Z,1000.48
2023-04-10T05:46:01.827Z,1000.54
2023-04-10T05:47:01.684Z,1000.51
2023-04-10T05:48:01.788Z,1000.56
2023-04-10T05:49:01.726Z,1000.59
2023-04-10T05:50:01.706Z,1000.57
2023-04-10T05:51:01.722Z,1000.61
2023-04-10T05:52:01.668Z,1000.47
2023-04-10T05:53:01.650Z,1000.51
2023-04-10T05:54:01.690Z,1000.51
2023-04-10T05:55:01.635Z,1000.54
2023-04-10T05:56:01.641Z,1000.52
2023-04-10T05:57:01.666Z,1000.53
2023-04-10T05:58:01.625Z,1000.50
2023-04-10T05:59:01.601Z,1000.46
2023-04-10T06:00:01.596Z,1000.50
2023-04-10T06:01:01.640Z,1000.55
2023-04-10T06:02:01.684Z,1000.53
2023-04-10T06:03:01.657Z,1000.51
2023-04-10T06:04:01.724Z,1000.56
2023-04-10T06:05:01.595Z,1000.50
2023-04-10T06:06:01.602Z,1000.53
2023-04-10T06:07:01.549Z,1000.46
2023-04-10T06:08:01.571Z,1000.44
2023-04-10T06:09:01.550Z,1000.49
2023-04-10T06:10:01.506Z,1000.47
2023-04-10T06:11:01.547Z,1000.48
2023-04-10T06:12:01.523Z,1000.45
2023-04-10T06:13:01.547Z,1000.48
2023-04-10T06:14:01.498Z,1000.51
2023-04-10T06:15:01.500Z,1000.53
2023-04-10T06:16:02.160Z,1000.45
2023-04-10T06:17:01.484Z,1000.44
2023-04-10T06:18:01.577Z,1000.49
2023-04-10T06:19:01.487Z,1000.48
2023-04-10T06:20:01.536Z,1000.44
2023-04-10T06:21:01.469Z,1000.44
2023-04-10T06:22:01.529Z,1000.40
2023-04-10T06:23:01.438Z,1000.47
2023-04-10T06:24:01.452Z,1000.46
2023-04-10T06:25:01.449Z,1000.42
2023-04-10T06:26:01.497Z,1000.38
2023-04-10T06:27:01.536Z,1000.40
2023-04-10T06:28:01.440Z,1000.36
2023-04-10T06:29:01.519Z,1000.35
2023-04-10T06:30:01.375Z,1000.32
2023-04-10T06:31:01.531Z,1000.32
2023-04-10T06:32:01.412Z,1000.26
2023-04-10T06:33:01.403Z,1000.28
2023-04-10T06:34:01.427Z,1000.27
2023-04-10T06:35:01.571Z,1000.22
2023-04-10T06:36:01.410Z,1000.21
2023-04-10T06:37:01.462Z,1000.30
2023-04-10T06:38:01.476Z,1000.20
2023-04-10T06:39:01.354Z,1000.24
2023-04-10T06:40:01.399Z,1000.23
2023-04-10T06:41:01.328Z,1000.20
2023-04-10T06:42:01.359Z,1000.27
2023-04-10T06:43:01.412Z,1000.30
2023-04-10T06:44:03.287Z,1000.20
2023-04-10T06:45:02.426Z,1000.20
2023-04-10T06:46:01.590Z,1000.17
2023-04-10T06:47:01.444Z,1000.12
2023-04-10T06:48:01.467Z,1000.26
2023-04-10T06:49:01.345Z,1000.18
2023-04-10T06:50:01.339Z,1000.24
2023-04-10T06:51:01.404Z,1000.19
2023-04-10T06:52:01.398Z,1000.17
2023-04-10T06:53:01.342Z,1000.18
2023-04-10T06:54:01.341Z,1000.19
2023-04-10T06:55:01.353Z,1000.18
2023-04-10T06:56:03.365Z,1000.16
2023-04-10T06:57:01.345Z,1000.19
2023-04-10T06:58:01.373Z,1000.18
2023-04-10T06:59:01.368Z,1000.13
2023-04-10T07:00:01.265Z,1000.14
2023-04-10T07:01:01.489Z,1000.18
2023-04-10T07:02:01.479Z,1000.04
2023-04-10T07:03:01.363Z,1000.06
2023-04-10T07:04:01.291Z,1000.06
2023-04-10T07:05:01.209Z,1000.06
2023-04-10T07:06:01.233Z,1000.03
2023-04-10T07:07:01.196Z,1000.08
2023-04-10T07:08:01.421Z,1000.08
2023-04-10T07:09:01.200Z,1000.05
2023-04-10T07:10:01.484Z,1000.11
2023-04-10T07:11:01.296Z,1000.11
2023-04-10T07:12:01.289Z,1000.10
2023-04-10T07:13:01.321Z,1000.05
2023-04-10T07:14:01.157Z,1000.03
2023-04-10T07:15:01.208Z,1000.04
2023-04-10T07:16:01.212Z,1000.04
2023-04-10T07:17:01.244Z,1000.05
2023-04-10T07:18:01.269Z,1000.09
2023-04-10T07:19:01.257Z,1000.03
2023-04-10T07:20:01.154Z,1000.08
2023-04-10T07:21:01.129Z,1000.01
2023-04-10T07:22:01.200Z,999.98
2023-04-10T07:23:01.281Z,1000.02
2023-04-10T07:24:01.151Z,1000.01
2023-04-10T07:25:01.106Z,1000.03
2023-04-10T07:26:01.118Z,1000.03
2023-04-10T07:27:01.108Z,1000.06
2023-04-10T07:28:01.093Z,1000.04
2023-04-10T07:29:01.117Z,1000.02
2023-04-10T07:30:01.232Z,999.94
2023-04-10T07:31:01.077Z,999.94
2023-04-10T07:32:01.180Z,999.93
2023-04-10T07:33:01.379Z,999.93
2023-04-10T07:34:01.246Z,999.93
2023-04-10T07:35:01.176Z,999.91
2023-04-10T07:36:01.093Z,999.88
2023-04-10T07:37:01.068Z,999.90
2023-04-10T07:38:01.047Z,999.88
2023-04-10T07:39:01.121Z,999.84
2023-04-10T07:40:01.148Z,999.85
2023-04-10T07:41:01.148Z,999.87
2023-04-10T07:42:01.125Z,999.88
2023-04-10T07:43:01.050Z,999.85
2023-04-10T07:44:01.144Z,999.79
2023-04-10T07:45:01.023Z,999.77
2023-04-10T07:46:01.041Z,999.74
2023-04-10T07:47:01.021Z,999.75
2023-04-10T07:48:00.998Z,999.71
2023-04-10T07:49:01.138Z,999.67
2023-04-10T07:50:01.031Z,999.68
2023-04-10T07:51:01.030Z,999.67
2023-04-10T07:52:00.974Z,999.67
2023-04-10T07:53:01.009Z,999.71
2023-04-10T07:54:00.974Z,999.67
2023-04-10T07:55:00.949Z,999.64
2023-04-10T07:56:01.028Z,999.68
2023-04-10T07:57:01.024Z,999.65
2023-04-10T07:58:01.055Z,999.69
2023-04-10T07:59:00.954Z,999.70
2023-04-10T08:00:00.950Z,999.66
2023-04-10T08:01:01.003Z,999.69
2023-04-10T08:02:01.014Z,999.65
2023-04-10T08:03:01.259Z,999.60
2023-04-10T08:04:03.863Z,999.60
2023-04-10T08:05:00.998Z,999.58
2023-04-10T08:06:00.928Z,999.62
2023-04-10T08:07:01.028Z,999.48
2023-04-10T08:08:00.934Z,999.46
2023-04-10T08:09:00.930Z,999.50
2023-04-10T08:10:00.862Z,999.46
2023-04-10T08:11:00.849Z,999.43
2023-04-10T08:12:00.852Z,999.46
2023-04-10T08:13:00.880Z,999.47
2023-04-10T08:14:00.851Z,999.49
2023-04-10T08:15:00.838Z,999.46
2023-04-10T08:16:00.907Z,999.45
2023-04-10T08:17:00.887Z,999.47
2023-04-10T08:18:00.868Z,999.46
2023-04-10T08:19:00.831Z,999.44
2023-04-10T08:20:00.782Z,999.45
2023-04-10T08:21:00.842Z,999.39
2023-04-10T08:22:00.788Z,999.44
2023-04-10T08:23:09.179Z,999.43
2023-04-10T08:24:02.770Z,999.47
2023-04-10T08:25:00.768Z,999.42
2023-04-10T08:26:00.762Z,999.45
2023-04-10T08:27:00.758Z,999.51
2023-04-10T08:28:00.766Z,999.45
2023-04-10T08:29:00.889Z,999.41
2023-04-10T08:30:00.732Z,999.34
2023-04-10T08:31:00.748Z,999.35
2023-04-10T08:32:00.748Z,999.33
2023-04-10T08:33:00.716Z,999.35
2023-04-10T08:34:00.796Z,999.35
2023-04-10T08:35:00.697Z,999.31
2023-04-10T08:36:00.700Z,999.31
2023-04-10T08:37:00.670Z,999.28
2023-04-10T08:38:12.620Z,999.29
2023-04-10T08:39:02.685Z,999.27
2023-04-10T08:40:00.651Z,999.26
2023-04-10T08:41:00.655Z,999.20
2023-04-10T08:42:00.652Z,999.27
2023-04-10T08:43:00.639Z,999.23
2023-04-10T08:44:00.668Z,999.26
2023-04-10T08:45:00.652Z,999.28
2023-04-10T08:46:00.640Z,999.23
2023-04-10T08:47:00.610Z,999.23
2023-04-10T08:48:00.680Z,999.21
2023-04-10T08:49:00.655Z,999.19
2023-04-10T08:50:00.620Z,999.20
2023-04-10T08:51:00.573Z,999.17
2023-04-10T08:52:00.618Z,999.14
2023-04-10T08:53:00.597Z,999.15
2023-04-10T08:54:00.561Z,999.10
2023-04-10T08:55:00.589Z,999.09
2023-04-10T08:56:00.542Z,999.01
2023-04-10T08:57:00.573Z,998.99
2023-04-10T08:58:01.725Z,999.02
2023-04-10T08:59:01.511Z,999.04
2023-04-10T09:00:04.039Z,998.98
2023-04-10T09:01:01.498Z,999.03
2023-04-10T09:02:00.523Z,998.97
2023-04-10T09:03:00.645Z,998.94
2023-04-10T09:04:01.075Z,998.95
2023-04-10T09:05:00.513Z,998.88
2023-04-10T09:06:00.476Z,998.90
2023-04-10T09:07:00.530Z,998.89
2023-04-10T09:08:00.457Z,998.88
2023-04-10T09:10:00.452Z,998.89
2023-04-10T09:11:00.443Z,998.82
2023-04-10T09:12:00.747Z,998.81
2023-04-10T09:13:00.396Z,998.81
2023-04-10T09:14:00.390Z,998.80
2023-04-10T09:15:00.422Z,998.67
2023-04-10T09:16:00.651Z,998.69
2023-04-10T09:17:00.413Z,998.67
2023-04-10T09:18:00.379Z,998.68
2023-04-10T09:19:00.361Z,998.61
2023-04-10T09:20:00.384Z,998.57
2023-04-10T09:21:00.405Z,998.54
2023-04-10T09:22:00.334Z,998.62
2023-04-10T09:23:00.310Z,998.55
2023-04-10T09:24:00.316Z,998.48
2023-04-10T09:25:00.324Z,998.56
2023-04-10T09:26:00.339Z,998.59
2023-04-10T09:27:00.286Z,998.57
2023-04-10T09:28:00.333Z,998.46
2023-04-10T09:29:00.300Z,998.47
2023-04-10T09:30:00.252Z,998.48
2023-04-10T09:31:00.259Z,998.41
2023-04-10T09:32:00.228Z,998.49
2023-04-10T09:33:02.000Z,998.43
2023-04-10T09:34:00.237Z,998.42
2023-04-10T09:35:00.225Z,998.36
2023-04-10T09:36:00.270Z,998.26
2023-04-10T09:37:00.244Z,998.36
2023-04-10T09:38:00.228Z,998.35
2023-04-10T09:39:00.206Z,998.33
2023-04-10T09:40:00.192Z,998.23
2023-04-10T09:41:00.182Z,998.22
2023-04-10T09:42:00.169Z,998.17
2023-04-10T09:43:00.191Z,998.28
2023-04-10T09:44:00.156Z,998.19
2023-04-10T09:45:00.236Z,998.10
2023-04-10T09:46:00.135Z,998.18
2023-04-10T09:47:00.343Z,998.10
2023-04-10T09:48:00.237Z,998.15
2023-04-10T09:49:00.123Z,998.07
2023-04-10T09:50:00.204Z,998.15
2023-04-10T09:51:00.108Z,998.20
2023-04-10T09:52:00.138Z,998.15
2023-04-10T09:53:00.119Z,998.13
2023-04-10T09:54:00.061Z,998.08
2023-04-10T09:55:00.125Z,998.16
2023-04-10T09:56:00.116Z,998.17
2023-04-10T09:57:00.042Z,998.10
2023-04-10T09:58:00.040Z,998.10
2023-04-10T09:59:00.115Z,998.07
2023-04-10T10:00:00.129Z,998.10
2023-04-10T10:01:00.085Z,998.03
2023-04-10T10:02:00.105Z,998.01
2023-04-10T10:03:00.065Z,997.95
2023-04-10T10:04:00.021Z,997.91
2023-04-10T10:05:00.069Z,997.94
2023-04-10T10:05:59.989Z,997.90
2023-04-10T10:06:59.966Z,997.83
2023-04-10T10:07:59.942Z,997.82
2023-04-10T10:08:59.925Z,997.79
2023-04-10T10:09:59.934Z,997.84
2023-04-10T10:10:59.986Z,997.76
2023-04-10T10:11:59.909Z,997.77
2023-04-10T10:12:59.960Z,997.84
2023-04-10T10:13:59.902Z,997.88
2023-04-10T10:14:59.905Z,997.78
2023-04-10T10:15:59.953Z,997.66
2023-04-10T10:16:59.906Z,997.69
2023-04-10T10:17:59.982Z,997.74
2023-04-10T10:18:59.862Z,997.66
2023-04-10T10:19:59.860Z,997.67
2023-04-10T10:20:59.891Z,997.67
2023-04-10T10:21:59.889Z,997.60
2023-04-10T10:22:59.858Z,997.59
2023-04-10T10:23:59.904Z,997.61
2023-04-10T10:24:59.818Z,997.60
2023-04-10T10:26:01.695Z,997.57
2023-04-10T10:26:59.888Z,997.51
2023-04-10T10:27:59.811Z,997.52
2023-04-10T10:28:59.800Z,997.44
2023-04-10T10:30:01.265Z,997.47
2023-04-10T10:31:00.777Z,997.53
2023-04-10T10:31:59.970Z,997.47
2023-04-10T10:32:59.937Z,997.48
2023-04-10T10:33:59.759Z,997.48
2023-04-10T10:34:59.762Z,997.46
2023-04-10T10:35:59.742Z,997.48
2023-04-10T10:36:59.797Z,997.48
2023-04-10T10:37:59.725Z,997.33
2023-04-10T10:38:59.852Z,997.36
2023-04-10T10:39:59.704Z,997.33
2023-04-10T10:40:59.713Z,997.34
2023-04-10T10:41:59.867Z,997.36
2023-04-10T10:43:00.719Z,997.27
2023-04-10T10:43:59.681Z,997.30
2023-04-10T10:44:59.829Z,997.26
2023-04-10T10:45:59.769Z,997.22
2023-04-10T10:47:00.647Z,997.17
2023-04-10T10:47:59.723Z,997.19
2023-04-10T10:48:59.645Z,997.13
2023-04-10T10:49:59.652Z,997.11
2023-04-10T10:50:59.636Z,997.12
2023-04-10T10:51:59.617Z,997.10
2023-04-10T10:52:59.686Z,997.11
2023-04-10T10:53:59.629Z,996.99
2023-04-10T10:54:59.927Z,997.06
2023-04-10T10:56:00.603Z,997.02
2023-04-10T10:56:59.590Z,996.89
2023-04-10T10:57:59.631Z,996.88
2023-04-10T10:58:59.573Z,997.00
2023-04-10T10:59:59.552Z,996.91
2023-04-10T11:00:59.605Z,996.94
2023-04-10T11:01:59.613Z,996.83
2023-04-10T11:02:59.621Z,996.85
2023-04-10T11:03:59.607Z,996.74
2023-04-10T11:04:59.538Z,996.74
2023-04-10T11:05:59.564Z,996.74
2023-04-10T11:06:59.546Z,996.69
2023-04-10T11:07:59.514Z,996.66
2023-04-10T11:08:59.521Z,996.64
2023-04-10T11:09:59.487Z,996.67
2023-04-10T11:10:59.501Z,996.71
2023-04-10T11:11:59.496Z,996.64
2023-04-10T11:12:59.465Z,996.64
2023-04-10T11:13:59.520Z,996.61
2023-04-10T11:14:59.463Z,996.57
2023-04-10T11:15:59.486Z,996.56
2023-04-10T11:16:59.517Z,996.61
2023-04-10T11:17:59.475Z,996.62
2023-04-10T11:19:13.117Z,996.52
2023-04-10T11:20:01.417Z,996.51
2023-04-10T11:20:59.423Z,996.50
2023-04-10T11:21:59.441Z,996.52
2023-04-10T11:22:59.391Z,996.44
2023-04-10T11:23:59.494Z,996.44
2023-04-10T11:24:59.405Z,996.45
2023-04-10T11:25:59.377Z,996.42
2023-04-10T11:26:59.413Z,996.42
2023-04-10T11:27:59.370Z,996.36
2023-04-10T11:28:59.353Z,996.41
2023-04-10T11:29:59.387Z,996.37
2023-04-10T11:30:59.342Z,996.36
2023-04-10T11:31:59.392Z,996.35
2023-04-10T11:32:59.331Z,996.32
2023-04-10T11:33:59.303Z,996.30
2023-04-10T11:34:59.310Z,996.31
2023-04-10T11:35:59.350Z,996.25
2023-04-10T11:36:59.299Z,996.26
2023-04-10T11:37:59.269Z,996.24
2023-04-10T11:38:59.275Z,996.22
2023-04-10T11:39:59.253Z,996.22
2023-04-10T11:40:59.308Z,996.12
2023-04-10T11:41:59.302Z,996.13
2023-04-10T11:42:59.284Z,996.17
2023-04-10T11:44:00.243Z,996.13
2023-04-10T11:44:59.265Z,996.20
2023-04-10T11:45:59.310Z,996.11
2023-04-10T11:46:59.240Z,996.08
2023-04-10T11:47:59.337Z,996.06
2023-04-10T11:48:59.234Z,995.99
2023-04-10T11:49:59.218Z,996.04
2023-04-10T11:50:59.191Z,996.01
2023-04-10T11:51:59.220Z,995.97
2023-04-10T11:52:59.180Z,996.07
2023-04-10T11:53:59.184Z,996.00
2023-04-10T11:54:59.153Z,995.90
2023-04-10T11:55:59.144Z,995.99
2023-04-10T11:56:59.203Z,995.86
2023-04-10T11:57:59.179Z,995.85
2023-04-10T11:58:59.136Z,995.87
2023-04-10T11:59:59.109Z,995.85
2023-04-10T12:00:59.141Z,995.74
2023-04-10T12:01:59.237Z,995.71
2023-04-10T12:02:59.198Z,995.77
2023-04-10T12:03:59.262Z,995.71
2023-04-10T12:04:59.120Z,995.72
2023-04-10T12:05:59.071Z,995.64
2023-04-10T12:06:59.070Z,995.70
2023-04-10T12:07:59.094Z,995.61
2023-04-10T12:08:59.123Z,995.58
2023-04-10T12:09:59.058Z,995.63
2023-04-10T12:10:59.042Z,995.67
2023-04-10T12:11:59.044Z,995.62
2023-04-10T12:12:59.150Z,995.58
2023-04-10T12:13:59.079Z,995.57
2023-04-10T12:14:59.057Z,995.55